Hauptseite
METAR-TAF:

METAR-TAF

Flughäfen :

Flugplatz Schwäbisch Hall-Hessental (Adolf Würth Airport)

Schwäbisch Hall, Deutschland

Breite: 49-07-06N, Länge: 9-47-02E, Höhe: 398 m

Beobachtung

Neuester Wetterbericht von vor 22 Minuten, um 12:50 UTC
Wind 3 kt aus Ost/Nordost, variierte zwischen Nord/Nordost und Ost/Südost
Temperatur 4°C
Luftfeuchtigkeit 70%
Luftdruck 1022 hPa
Sichtweite 10 km oder mehr
keine Wolken unter 1500 m und keine Kumulonimbus oder Gewitterwolken

METAR: EDTY 241250Z 06003KT 020V120 CAVOK 04/M01 Q1022

Zeit: 14:12 (13:12 UTC)

Prognose

Neuester Wetterbericht von vor 2 Stunden und 12 Minuten, um 11:00 UTC
Gültige Prognose vom 24 um 12 UTC bis 24 um 21 UTC
Wind 2 kt aus unterschiedlichen Richtungen
Sichtweite: 9000 m
Zeitweise
vom 24 um 19 UTC bis 24 um 21 UTC
Sichtweite: 1500 m
Nebelschwaden

TAF: EDTY 241100Z 2412/2421 VRB02KT 9000 NSC TEMPO 2419/2421 1500 BCFG

Wetterbeobachtungen und Prognosen von mehr als 4000 Flughäfen (METAR und TAF Bericht).

Die verfügbaren Stationen werden durch gelbe und rote Markierungen auf der Karte dargestellt.

Führen Sie die Maus auf sie, um den Namen der Station zu sehen.

Darauf klicken, um die Beobachtung von Wetterbeobachtungen und Prognosen zu sehen.

Um die Karte zu ändern : klicken Sie auf den grünen Tasten mit einem schwarzen Kreuz Zum Vergrößern, auf den grünen Button mit einem Gedankenstrich zu verkleinern, oder auf die grünen Pfeile für benachbarte Karten.


METAR-TAF: